createdAt,value
2018-12-15T00:02:25.856Z,10.57
2018-12-15T00:04:54.039Z,11.00
2018-12-15T00:07:22.185Z,10.97
2018-12-15T00:09:54.633Z,11.50
2018-12-15T00:12:23.859Z,13.17
2018-12-15T00:14:53.045Z,11.10
2018-12-15T00:17:27.068Z,11.25
2018-12-15T00:19:55.299Z,12.20
2018-12-15T00:22:24.536Z,11.20
2018-12-15T00:24:52.730Z,12.80
2018-12-15T00:27:20.921Z,13.13
2018-12-15T00:29:50.069Z,11.18
2018-12-15T00:32:19.290Z,12.43
2018-12-15T00:34:48.851Z,11.33
2018-12-15T00:37:18.118Z,13.33
2018-12-15T00:39:46.371Z,11.97
2018-12-15T00:42:14.549Z,11.40
2018-12-15T00:44:42.741Z,11.33
2018-12-15T00:47:13.884Z,11.97
2018-12-15T00:49:39.706Z,13.28
2018-12-15T00:52:07.988Z,12.37
2018-12-15T00:54:36.216Z,11.47
2018-12-15T00:57:04.384Z,11.77
2018-12-15T00:59:32.667Z,11.10
2018-12-15T01:02:00.840Z,12.17
2018-12-15T01:04:28.999Z,11.60
2018-12-15T01:06:57.505Z,13.10
2018-12-15T01:09:25.671Z,11.20
2018-12-15T01:11:53.851Z,12.90
2018-12-15T01:14:23.103Z,10.70
2018-12-15T01:16:53.256Z,11.95
2018-12-15T01:19:21.497Z,12.17
2018-12-15T01:21:49.593Z,12.97
2018-12-15T01:24:17.776Z,12.37
2018-12-15T01:26:46.220Z,11.43
2018-12-15T01:29:14.427Z,12.03
2018-12-15T01:31:44.005Z,12.10
2018-12-15T01:34:13.287Z,12.75
2018-12-15T01:36:41.494Z,11.77
2018-12-15T01:39:10.033Z,12.90
2018-12-15T01:41:38.273Z,12.77
2018-12-15T01:44:07.836Z,12.33
2018-12-15T01:46:56.608Z,12.13
2018-12-15T01:49:24.827Z,11.27
2018-12-15T01:51:58.141Z,12.03
2018-12-15T01:54:26.187Z,11.80
2018-12-15T01:56:54.335Z,13.03
2018-12-15T01:59:22.524Z,13.73
2018-12-15T02:01:50.698Z,13.20
2018-12-15T02:04:19.233Z,13.23
2018-12-15T02:06:47.352Z,12.33
2018-12-15T02:09:16.603Z,12.30
2018-12-15T02:11:45.245Z,14.05
2018-12-15T02:14:13.427Z,13.45
2018-12-15T02:16:41.596Z,13.50
2018-12-15T02:19:09.750Z,13.97
2018-12-15T02:21:38.594Z,14.17
2018-12-15T02:24:06.788Z,14.40
2018-12-15T02:26:35.365Z,15.13
2018-12-15T02:29:04.561Z,15.80
2018-12-15T02:31:32.748Z,15.97
2018-12-15T02:34:00.942Z,15.28
2018-12-15T02:36:29.110Z,15.97
2018-12-15T02:38:57.261Z,15.17
2018-12-15T02:41:25.467Z,15.80
2018-12-15T02:43:53.657Z,15.70
2018-12-15T02:46:22.814Z,13.97
2018-12-15T02:48:51.997Z,14.57
2018-12-15T02:51:22.142Z,14.03
2018-12-15T02:53:50.304Z,13.80
2018-12-15T02:56:18.502Z,14.13
2018-12-15T02:58:46.651Z,14.17
2018-12-15T03:01:14.855Z,14.18
2018-12-15T03:03:43.023Z,13.23
2018-12-15T03:06:11.600Z,14.17
2018-12-15T03:08:39.760Z,13.10
2018-12-15T03:11:07.983Z,13.50
2018-12-15T03:13:36.111Z,13.57
2018-12-15T03:16:05.237Z,13.87
2018-12-15T03:18:33.717Z,13.60
2018-12-15T03:21:02.318Z,14.57
2018-12-15T03:23:30.454Z,14.13
2018-12-15T03:25:58.682Z,14.07
2018-12-15T03:28:26.910Z,15.97
2018-12-15T03:30:56.079Z,14.57
2018-12-15T03:33:28.279Z,16.37
2018-12-15T03:35:56.469Z,17.00
2018-12-15T03:38:27.685Z,14.97
2018-12-15T03:40:55.857Z,16.55
2018-12-15T03:43:24.036Z,18.67
2018-12-15T03:45:52.286Z,19.73
2018-12-15T03:48:20.536Z,23.07
2018-12-15T03:50:50.960Z,20.30
2018-12-15T03:53:19.546Z,18.93
2018-12-15T03:55:48.771Z,17.35
2018-12-15T03:58:17.026Z,16.77
2018-12-15T04:00:45.461Z,15.20
2018-12-15T04:03:13.615Z,15.13
2018-12-15T04:05:42.195Z,15.23
2018-12-15T04:08:10.377Z,15.33
2018-12-15T04:10:38.789Z,14.17
2018-12-15T04:13:07.958Z,14.13
2018-12-15T04:15:55.517Z,14.27
2018-12-15T04:18:23.758Z,14.35
2018-12-15T04:20:52.966Z,14.53
2018-12-15T04:23:21.154Z,14.33
2018-12-15T04:25:49.376Z,14.35
2018-12-15T04:28:18.591Z,14.17
2018-12-15T04:30:46.754Z,13.63
2018-12-15T04:33:14.976Z,14.23
2018-12-15T04:35:43.099Z,15.70
2018-12-15T04:38:11.375Z,14.18
2018-12-15T04:40:39.544Z,14.00
2018-12-15T04:43:07.737Z,14.00
2018-12-15T04:45:37.262Z,14.80
2018-12-15T04:48:10.981Z,16.03
2018-12-15T04:50:34.157Z,13.67
2018-12-15T04:53:02.356Z,13.80
2018-12-15T04:55:31.616Z,13.60
2018-12-15T04:57:59.913Z,14.43
2018-12-15T05:00:28.135Z,14.13
2018-12-15T05:02:56.289Z,14.60
2018-12-15T05:05:43.890Z,13.63
2018-12-15T05:08:12.090Z,14.60
2018-12-15T05:10:40.651Z,15.40
2018-12-15T05:13:08.848Z,14.07
2018-12-15T05:15:37.022Z,15.63
2018-12-15T05:18:06.200Z,13.90
2018-12-15T05:20:34.803Z,13.57
2018-12-15T05:23:03.059Z,14.23
2018-12-15T05:25:31.237Z,12.87
2018-12-15T05:28:04.496Z,14.03
2018-12-15T05:30:33.380Z,17.83
2018-12-15T05:33:01.602Z,13.77
2018-12-15T05:35:30.153Z,13.57
2018-12-15T05:37:58.408Z,13.63
2018-12-15T05:40:26.857Z,13.38
2018-12-15T05:42:56.939Z,13.40
2018-12-15T05:45:25.147Z,13.67
2018-12-15T05:47:53.311Z,13.03
2018-12-15T05:50:21.524Z,15.00
2018-12-15T05:52:49.776Z,13.37
2018-12-15T05:55:17.947Z,13.83
2018-12-15T05:57:46.195Z,13.33
2018-12-15T06:00:14.406Z,13.98
2018-12-15T06:02:43.594Z,12.63
2018-12-15T06:05:11.932Z,14.17
2018-12-15T06:07:40.143Z,13.47
2018-12-15T06:10:08.315Z,13.70
2018-12-15T06:12:36.478Z,12.47
2018-12-15T06:15:10.374Z,13.27
2018-12-15T06:17:38.546Z,14.47
2018-12-15T06:20:08.525Z,13.13
2018-12-15T06:22:36.753Z,12.87
2018-12-15T06:25:06.129Z,13.37
2018-12-15T06:27:36.166Z,13.33
2018-12-15T06:30:05.561Z,13.97
2018-12-15T06:32:34.015Z,15.70
2018-12-15T06:35:02.225Z,13.77
2018-12-15T06:37:35.721Z,13.37
2018-12-15T06:40:06.358Z,19.30
2018-12-15T06:42:35.183Z,13.75
2018-12-15T06:45:06.287Z,12.20
2018-12-15T06:47:38.389Z,12.63
2018-12-15T06:50:06.554Z,13.27
2018-12-15T06:52:34.721Z,12.53
2018-12-15T06:55:03.141Z,16.10
2018-12-15T06:57:31.389Z,12.43
2018-12-15T06:59:59.904Z,12.07
2018-12-15T07:02:29.192Z,12.57
2018-12-15T07:04:57.422Z,11.95
2018-12-15T07:07:25.629Z,12.20
2018-12-15T07:09:53.843Z,11.87
2018-12-15T07:12:22.038Z,13.43
2018-12-15T07:14:50.202Z,13.40
2018-12-15T07:17:18.413Z,14.00
2018-12-15T07:19:48.701Z,12.13
2018-12-15T07:22:16.884Z,11.53
2018-12-15T07:24:45.046Z,12.00
2018-12-15T07:27:13.236Z,12.30
2018-12-15T07:29:42.249Z,12.37
2018-12-15T07:32:10.494Z,11.87
2018-12-15T07:34:39.621Z,12.47
2018-12-15T07:37:08.817Z,11.90
2018-12-15T07:39:51.050Z,11.83
2018-12-15T07:42:27.296Z,12.30
2018-12-15T07:44:57.887Z,11.20
2018-12-15T07:47:27.056Z,12.10
2018-12-15T07:49:55.244Z,13.05
2018-12-15T07:52:23.445Z,12.17
2018-12-15T07:57:45.619Z,10.97
2018-12-15T08:00:13.889Z,11.40
2018-12-15T08:02:42.058Z,11.30
2018-12-15T08:05:11.220Z,15.47
2018-12-15T08:07:39.393Z,13.17
2018-12-15T08:10:07.867Z,11.20
2018-12-15T08:12:50.217Z,11.43
2018-12-15T08:15:18.355Z,10.90
2018-12-15T08:17:48.551Z,10.60
2018-12-15T08:20:18.047Z,9.55
2018-12-15T08:22:46.238Z,9.87
2018-12-15T08:25:16.512Z,9.73
2018-12-15T08:27:46.974Z,9.28
2018-12-15T08:30:16.305Z,8.83
2018-12-15T08:33:07.925Z,9.23
2018-12-15T08:35:36.451Z,9.20
2018-12-15T08:38:07.402Z,8.90
2018-12-15T08:40:40.947Z,9.20
2018-12-15T08:43:27.475Z,8.93
2018-12-15T08:46:15.623Z,9.50
2018-12-15T08:49:04.754Z,8.87
2018-12-15T08:51:31.014Z,9.13
2018-12-15T08:53:59.535Z,8.13
2018-12-15T08:56:27.813Z,8.70
2018-12-15T08:58:56.030Z,10.03
2018-12-15T09:01:24.256Z,9.53
2018-12-15T09:03:52.454Z,9.93
2018-12-15T09:06:21.741Z,9.00
2018-12-15T09:08:49.940Z,10.53
2018-12-15T09:11:18.152Z,8.93
2018-12-15T09:13:46.733Z,8.70
2018-12-15T09:16:14.965Z,8.17
2018-12-15T09:18:43.113Z,8.87
2018-12-15T09:21:34.220Z,8.53
2018-12-15T09:24:03.457Z,8.50
2018-12-15T09:26:31.659Z,9.13
2018-12-15T09:29:00.199Z,7.95
2018-12-15T09:31:28.654Z,8.60
2018-12-15T09:33:58.178Z,9.07
2018-12-15T09:36:26.678Z,8.80
2018-12-15T09:38:56.143Z,8.00
2018-12-15T09:41:25.364Z,8.80
2018-12-15T09:43:53.705Z,8.20
2018-12-15T09:46:23.874Z,8.60
2018-12-15T09:48:52.038Z,8.30
2018-12-15T09:51:21.241Z,7.67
2018-12-15T09:53:52.783Z,7.50
2018-12-15T09:56:23.538Z,7.53
2018-12-15T09:58:54.655Z,9.23
2018-12-15T10:01:24.994Z,7.70
2018-12-15T10:03:53.210Z,9.37
2018-12-15T10:06:21.478Z,8.63
2018-12-15T10:08:53.719Z,8.23
2018-12-15T10:11:42.541Z,7.90
2018-12-15T10:14:11.155Z,7.80
2018-12-15T10:27:24.679Z,8.00
2018-12-15T10:34:19.805Z,7.13
2018-12-15T10:37:12.326Z,7.33
2018-12-15T10:43:45.814Z,8.37
2018-12-15T10:46:57.745Z,7.40
2018-12-15T10:49:42.020Z,6.30
2018-12-15T10:52:15.459Z,7.13
2018-12-15T10:54:48.030Z,8.17
2018-12-15T10:57:16.335Z,8.17
2018-12-15T11:00:45.169Z,7.57
2018-12-15T11:03:16.455Z,7.40
2018-12-15T11:05:50.752Z,7.13
2018-12-15T11:08:30.217Z,7.65
2018-12-15T11:11:00.567Z,7.83
2018-12-15T11:13:45.689Z,7.57
2018-12-15T11:16:15.885Z,7.10
2018-12-15T11:18:44.129Z,6.80
2018-12-15T11:21:12.290Z,7.47
2018-12-15T11:23:44.352Z,7.83
2018-12-15T11:26:12.542Z,7.37
2018-12-15T11:28:40.733Z,7.57
2018-12-15T11:34:56.025Z,7.97
2018-12-15T11:40:58.049Z,6.87
2018-12-15T11:43:52.704Z,7.47
2018-12-15T11:47:12.688Z,6.97
2018-12-15T11:50:14.870Z,7.27
2018-12-15T11:52:49.663Z,7.40
2018-12-15T11:58:58.884Z,6.73
2018-12-15T12:01:33.184Z,6.93
2018-12-15T12:04:18.579Z,8.95
2018-12-15T12:06:58.018Z,9.20
2018-12-15T12:09:37.087Z,7.27
2018-12-15T12:12:05.317Z,11.77
2018-12-15T12:14:40.630Z,9.93
2018-12-15T12:17:17.737Z,8.20
2018-12-15T12:19:54.821Z,8.80
2018-12-15T12:22:23.334Z,8.30
2018-12-15T12:24:57.898Z,7.80
2018-12-15T12:27:26.136Z,8.83
2018-12-15T12:30:01.079Z,8.10
2018-12-15T12:32:29.439Z,8.15
2018-12-15T12:34:57.649Z,10.90
2018-12-15T12:44:35.597Z,7.90
2018-12-15T12:47:30.278Z,7.90
2018-12-15T12:50:16.969Z,8.03
2018-12-15T12:52:45.170Z,7.63
2018-12-15T12:55:19.751Z,7.90
2018-12-15T13:01:29.196Z,8.20
2018-12-15T13:04:03.308Z,7.87
2018-12-15T13:06:35.088Z,8.93
2018-12-15T13:09:11.361Z,8.00
2018-12-15T13:11:41.644Z,8.97
2018-12-15T13:14:10.883Z,9.07
2018-12-15T13:16:42.558Z,9.23
2018-12-15T13:19:11.827Z,8.90
2018-12-15T13:21:49.217Z,9.00
2018-12-15T13:24:26.044Z,8.67
2018-12-15T13:26:59.202Z,9.33
2018-12-15T13:29:25.488Z,8.77
2018-12-15T13:32:03.177Z,9.73
2018-12-15T13:34:37.623Z,9.30
2018-12-15T13:37:06.870Z,9.48
2018-12-15T13:39:35.794Z,9.03
2018-12-15T13:42:06.053Z,9.13
2018-12-15T13:44:34.245Z,8.95
2018-12-15T13:47:03.547Z,10.10
2018-12-15T13:49:35.796Z,8.73
2018-12-15T13:52:13.182Z,8.53
2018-12-15T13:54:48.822Z,7.67
2018-12-15T13:57:25.466Z,8.30
2018-12-15T13:59:53.712Z,8.43
2018-12-15T14:02:23.927Z,9.33
2018-12-15T14:04:52.107Z,9.67
2018-12-15T14:07:22.484Z,7.93
2018-12-15T14:10:13.712Z,9.13
2018-12-15T14:12:49.397Z,8.30
2018-12-15T14:15:32.295Z,9.20
2018-12-15T14:18:16.741Z,8.18
2018-12-15T14:20:47.944Z,8.27
2018-12-15T14:23:49.357Z,8.90
2018-12-15T14:26:28.797Z,8.53
2018-12-15T14:28:58.299Z,8.57
2018-12-15T14:32:03.691Z,7.27
2018-12-15T14:35:02.500Z,8.03
2018-12-15T14:38:04.571Z,8.78
2018-12-15T14:40:46.124Z,7.83
2018-12-15T14:43:14.450Z,8.60
2018-12-15T14:45:42.851Z,9.03
2018-12-15T14:48:15.448Z,8.47
2018-12-15T14:50:43.656Z,9.20
2018-12-15T14:53:13.901Z,9.70
2018-12-15T14:55:47.935Z,10.40
2018-12-15T14:58:19.580Z,11.03
2018-12-15T15:00:51.502Z,11.40
2018-12-15T15:03:24.159Z,10.77
2018-12-15T15:05:52.676Z,10.33
2018-12-15T15:08:22.276Z,10.63
2018-12-15T15:11:00.495Z,10.73
2018-12-15T15:13:34.607Z,8.93
2018-12-15T15:16:15.140Z,10.53
2018-12-15T15:18:49.242Z,10.73
2018-12-15T15:21:17.598Z,10.20
2018-12-15T15:23:45.773Z,11.23
2018-12-15T15:26:13.973Z,11.80
2018-12-15T15:28:42.575Z,12.03
2018-12-15T15:31:16.123Z,12.77
2018-12-15T15:33:44.342Z,10.87
2018-12-15T15:36:13.544Z,11.80
2018-12-15T15:38:42.982Z,11.35
2018-12-15T15:41:11.179Z,11.07
2018-12-15T15:43:41.456Z,11.70
2018-12-15T15:46:09.767Z,12.10
2018-12-15T15:48:38.203Z,11.47
2018-12-15T15:51:07.505Z,13.27
2018-12-15T15:53:35.800Z,10.63
2018-12-15T15:56:11.341Z,11.97
2018-12-15T15:58:39.621Z,12.68
2018-12-15T16:01:07.898Z,13.10
2018-12-15T16:03:37.116Z,13.03
2018-12-15T16:06:06.451Z,12.57
2018-12-15T16:08:47.700Z,13.03
2018-12-15T16:11:34.000Z,12.33
2018-12-15T16:14:15.280Z,12.35
2018-12-15T16:16:48.038Z,13.30
2018-12-15T16:19:58.705Z,13.10
2018-12-15T16:22:46.669Z,13.23
2018-12-15T16:28:48.751Z,13.03
2018-12-15T16:31:25.940Z,13.10
2018-12-15T16:33:54.103Z,12.73
2018-12-15T16:36:28.254Z,13.53
2018-12-15T16:39:27.179Z,14.37
2018-12-15T16:42:09.171Z,13.53
2018-12-15T16:44:40.185Z,13.87
2018-12-15T16:47:13.684Z,14.53
2018-12-15T16:49:41.881Z,14.33
2018-12-15T16:52:10.130Z,14.10
2018-12-15T16:54:41.519Z,13.53
2018-12-15T16:57:10.792Z,13.80
2018-12-15T16:59:39.074Z,15.53
2018-12-15T17:02:07.317Z,14.90
2018-12-15T17:04:36.529Z,14.10
2018-12-15T17:07:06.779Z,15.03
2018-12-15T17:09:36.008Z,14.53
2018-12-15T17:12:04.576Z,14.53
2018-12-15T17:14:32.884Z,15.20
2018-12-15T17:17:01.049Z,14.40
2018-12-15T17:19:29.221Z,13.37
2018-12-15T17:21:58.407Z,13.07
2018-12-15T17:24:26.630Z,11.60
2018-12-15T17:26:55.054Z,12.07
2018-12-15T17:29:23.291Z,13.23
2018-12-15T17:31:51.521Z,13.53
2018-12-15T17:34:19.813Z,12.17
2018-12-15T17:36:58.711Z,12.90
2018-12-15T17:39:26.890Z,13.20
2018-12-15T17:41:55.087Z,13.67
2018-12-15T17:44:24.257Z,13.62
2018-12-15T17:46:52.498Z,13.62
2018-12-15T17:49:20.710Z,14.00
2018-12-15T17:51:49.009Z,13.27
2018-12-15T17:54:17.476Z,13.53
2018-12-15T17:56:47.051Z,14.60
2018-12-15T17:59:15.277Z,13.87
2018-12-15T18:01:43.666Z,14.00
2018-12-15T18:04:12.154Z,13.37
2018-12-15T18:06:44.386Z,13.27
2018-12-15T18:09:22.674Z,13.90
2018-12-15T18:11:50.870Z,14.13
2018-12-15T18:14:19.045Z,16.13
2018-12-15T18:16:52.342Z,13.80
2018-12-15T18:19:20.514Z,13.58
2018-12-15T18:21:48.756Z,13.90
2018-12-15T18:24:16.989Z,11.38
2018-12-15T18:26:46.193Z,11.43
2018-12-15T18:29:14.409Z,10.87
2018-12-15T18:31:49.670Z,10.82
2018-12-15T18:34:18.934Z,10.80
2018-12-15T18:36:53.185Z,10.80
2018-12-15T18:39:22.486Z,12.03
2018-12-15T18:41:50.715Z,12.30
2018-12-15T18:44:18.974Z,11.17
2018-12-15T18:47:08.900Z,11.53
2018-12-15T18:49:37.097Z,11.30
2018-12-15T18:52:07.387Z,11.80
2018-12-15T18:54:35.643Z,11.43
2018-12-15T18:57:04.146Z,12.23
2018-12-15T18:59:32.355Z,11.07
2018-12-15T19:02:23.772Z,11.67
2018-12-15T19:05:08.970Z,11.40
2018-12-15T19:07:40.679Z,12.20
2018-12-15T19:10:09.899Z,12.30
2018-12-15T19:12:44.107Z,12.73
2018-12-15T19:15:12.354Z,12.43
2018-12-15T19:17:43.934Z,11.70
2018-12-15T19:20:15.881Z,13.40
2018-12-15T19:22:44.053Z,12.47
2018-12-15T19:25:12.322Z,12.97
2018-12-15T19:27:40.494Z,12.93
2018-12-15T19:30:08.675Z,12.77
2018-12-15T19:32:36.841Z,12.97
2018-12-15T19:35:06.099Z,12.27
2018-12-15T19:37:34.367Z,12.53
2018-12-15T19:40:02.494Z,13.53
2018-12-15T19:42:30.684Z,12.93
2018-12-15T19:44:58.846Z,12.93
2018-12-15T19:47:27.064Z,13.50
2018-12-15T19:49:55.617Z,13.70
2018-12-15T19:52:24.064Z,13.37
2018-12-15T19:54:52.298Z,13.10
2018-12-15T19:57:22.968Z,13.63
2018-12-15T19:59:51.229Z,13.88
2018-12-15T20:02:20.246Z,13.70
2018-12-15T20:04:49.353Z,14.93
2018-12-15T20:07:17.541Z,14.60
2018-12-15T20:09:45.720Z,13.87
2018-12-15T20:12:13.928Z,14.60
2018-12-15T20:14:42.214Z,14.67
2018-12-15T20:17:10.764Z,13.63
2018-12-15T20:19:40.178Z,14.00
2018-12-15T20:22:16.327Z,14.07
2018-12-15T20:24:44.557Z,15.10
2018-12-15T20:27:12.811Z,14.37
2018-12-15T20:29:44.195Z,13.63
2018-12-15T20:32:13.419Z,14.73
2018-12-15T20:34:41.653Z,14.40
2018-12-15T20:37:10.068Z,14.53
2018-12-15T20:39:38.223Z,13.87
2018-12-15T20:42:08.486Z,14.77
2018-12-15T20:44:41.713Z,14.67
2018-12-15T20:47:06.112Z,14.37
2018-12-15T20:49:34.380Z,16.80
2018-12-15T20:52:03.661Z,14.73
2018-12-15T20:54:31.863Z,14.80
2018-12-15T20:57:00.378Z,14.60
2018-12-15T20:59:34.262Z,15.60
2018-12-15T21:02:03.466Z,15.30
2018-12-15T21:04:34.714Z,14.37
2018-12-15T21:07:03.917Z,15.00
2018-12-15T21:09:41.381Z,14.37
2018-12-15T21:12:11.911Z,15.83
2018-12-15T21:14:40.157Z,15.23
2018-12-15T21:17:09.355Z,14.30
2018-12-15T21:19:37.564Z,15.10
2018-12-15T21:22:05.805Z,15.37
2018-12-15T21:24:34.084Z,15.80
2018-12-15T21:27:02.600Z,16.30
2018-12-15T21:29:30.782Z,16.33
2018-12-15T21:31:58.983Z,16.70
2018-12-15T21:34:27.233Z,17.37
2018-12-15T21:36:55.624Z,16.03
2018-12-15T21:39:23.890Z,17.10
2018-12-15T21:41:52.091Z,16.17
2018-12-15T21:44:20.328Z,16.50
2018-12-15T21:46:48.511Z,16.57
2018-12-15T21:49:16.680Z,16.53
2018-12-15T21:51:44.829Z,16.37
2018-12-15T21:54:13.085Z,17.43
2018-12-15T21:56:41.290Z,18.47
2018-12-15T21:59:10.394Z,18.00
2018-12-15T22:01:39.597Z,17.13
2018-12-15T22:04:07.754Z,15.80
2018-12-15T22:06:35.920Z,16.37
2018-12-15T22:09:05.885Z,15.13
2018-12-15T22:11:39.944Z,15.60
2018-12-15T22:14:08.169Z,15.57
2018-12-15T22:16:36.421Z,15.20
2018-12-15T22:19:05.616Z,15.00
2018-12-15T22:21:33.764Z,15.37
2018-12-15T22:24:01.952Z,14.83
2018-12-15T22:26:32.409Z,13.93
2018-12-15T22:29:00.746Z,14.60
2018-12-15T22:31:28.924Z,15.10
2018-12-15T22:33:57.099Z,14.10
2018-12-15T22:36:25.658Z,14.80
2018-12-15T22:38:53.854Z,15.13
2018-12-15T22:41:22.038Z,14.57
2018-12-15T22:43:50.322Z,14.47
2018-12-15T22:46:19.502Z,13.90
2018-12-15T22:48:48.076Z,15.13
2018-12-15T22:51:16.266Z,13.70
2018-12-15T22:53:44.432Z,13.87
2018-12-15T22:56:12.890Z,14.47
2018-12-15T22:58:41.066Z,13.90
2018-12-15T23:01:13.118Z,14.30
2018-12-15T23:03:41.362Z,14.47
2018-12-15T23:06:09.543Z,13.67
2018-12-15T23:08:37.816Z,13.67
2018-12-15T23:11:06.046Z,13.07
2018-12-15T23:13:34.217Z,13.60
2018-12-15T23:16:02.752Z,13.40
2018-12-15T23:18:31.253Z,14.70
2018-12-15T23:20:59.461Z,13.83
2018-12-15T23:23:27.685Z,13.73
2018-12-15T23:25:56.088Z,14.93
2018-12-15T23:28:24.596Z,14.03
2018-12-15T23:30:52.837Z,13.00
2018-12-15T23:33:21.965Z,14.60
2018-12-15T23:35:50.214Z,15.07
2018-12-15T23:38:19.455Z,15.45
2018-12-15T23:40:54.717Z,13.77
2018-12-15T23:43:23.424Z,14.77
2018-12-15T23:45:51.768Z,13.90
2018-12-15T23:48:19.942Z,15.60
2018-12-15T23:50:48.110Z,15.53
2018-12-15T23:53:16.278Z,13.53
2018-12-15T23:55:44.827Z,14.67
2018-12-15T23:58:32.410Z,13.53
